Главная страница
METAR-TAF:

METAR-TAF

Аэропорты :

Westminster, Мэриленд, США

широта: 39-36-30N, долгота: 077-00-28W, высота над уровнем моря: 240 м

Текущие метеонаблюдения

Эта сводка был подготовлена 34 минут назад, в 14:20 UTC
Ветер 9 Узел от южный с порывами до 14 Узел
Температура 17°C
Влажность 94%
Давление 1001 hPa
Видимость: 11.3 км
Отдельные облака на высоте 700 фута
небольшой дождь

METAR: KDMW 261420Z AUTO 17009G14KT 7SM -RA SCT007 17/16 A2955 RMK AO2 LTG DSNT NE

Время: 10:54 (14:54 UTC)


TAF: отсутствует

Метеонаблюдения и прогнозы для более 4000 аэропортов (сводки METAR и TAF).

Имеющиеся станции представлены на карте желтыми и красными точками.

Чтобы увидеть название станции, наведите на нее мышь.

Затем щелкните, чтобы увидеть метеонаблюдения и метеопрогнозы.

Управление картой: чтобы увеличить масштаб, щелкните зеленые кнопки с черным крестиком; чтобы уменьшить масштаб, щелкните зеленую кнопку с тире; для просмотра соседних карт щелкайте зеленые стрелки.


METAR-TAF: